Aérodrome :
LOGIN :

S'inscrire | Disclaimer

   EN    FR    IT 

 










Légende :    VFR   VFR Marginal   IFR   IFR Intensif   IFR Très Intensif
Visi : 
Plafond : 
>= 8 km
>= 3000ft
5 à 8 km
1000 à 3000 ft
1500m à 5 km
500 à 1000 ft
800 à 1500m
200 à 500 ft
< 800m
< 200 ft
Symboles :   Orages  Brouillard  Fortes neiges  Fortes précipitations  Vent > 20 kt
SIGMETs :   Divers  Orages  Givrage  Turbulence  Onde Orograph.  Cendres Volcan.






- Altitude de l'aérodrome : 863 ft
- Code IATA : ZAZ


LEZG - Zaragoza Aragon

DERNIER METAR :
  • 250600Z 27006KT 9999 VCTS FEW040 BKN050 FEW060CB 18/13 Q1026

METARs EXPIRÉS :
  • 250530Z 28006KT 250V310 9999 VCTS BKN050 FEW060CB 18/12 Q1026
  • 250500Z 28008KT 250V310 9999 VCTS BKN050 FEW060CB 17/12 Q1026
  • 250430Z 29008KT 260V320 9999 BKN050 18/12 Q1025
  • 250400Z 28006KT 9999 BKN050 18/12 Q1025
  • 250330Z 28008KT 9999 BKN050 18/12 Q1026

TAF TAF LEZG
Valide du 25 à 06h jusqu'au 26 à 06h UTC


250500Z 2506/2606 VRB04KT 9999 BKN040 TX27/2513Z TN16/2506Z
PROB30
TEMPO 2506/2516 3000 SHRA FEW060CB
PROB40
TEMPO 2506/2516 3000 TSRA BKN015 FEW060CB
PROB40
TEMPO 2518/2521 3000 TSRA FEW060CB



MET'MAP, la Météo Aéronautique d'un coup d'oeil ! - Copyright ORBIFLY Décembre 2007 - Disclaimer

ORBIFLY MET'MAP TEAM :

Programmation & Développement : Alexandra Zaïnal
Sur une idée originale de : Baudouin d'Aumeries
Assistance à la programmation : Marc-Olivier Méhu
Soutien technique & logistique : Manuel Goepfert

Contact : metmap@orbifly.com




SOURCES & CREDITS :

   NOAA